createdAt,value
2022-11-20T00:00:56.727Z,82.98
2022-11-20T00:03:25.215Z,83.96
2022-11-20T00:05:53.025Z,84.05
2022-11-20T00:08:20.772Z,83.78
2022-11-20T00:10:49.851Z,83.59
2022-11-20T00:13:17.717Z,84.73
2022-11-20T00:15:45.469Z,84.48
2022-11-20T00:18:13.307Z,84.57
2022-11-20T00:20:41.003Z,84.63
2022-11-20T00:23:09.167Z,84.13
2022-11-20T00:25:36.861Z,82.61
2022-11-20T00:28:06.004Z,82.98
2022-11-20T00:30:33.774Z,82.67
2022-11-20T00:33:01.494Z,83.14
2022-11-20T00:35:29.409Z,83.49
2022-11-20T00:37:57.089Z,83.89
2022-11-20T00:40:24.819Z,84.48
2022-11-20T00:42:53.135Z,85.24
2022-11-20T00:45:22.543Z,83.09
2022-11-20T00:47:50.276Z,83.63
2022-11-20T00:50:18.335Z,83.34
2022-11-20T00:52:46.158Z,83.31
2022-11-20T00:55:13.817Z,84.64
2022-11-20T00:57:41.583Z,83.94
2022-11-20T01:00:10.481Z,84.48
2022-11-20T01:02:39.658Z,87.25
2022-11-20T01:05:07.805Z,85.20
2022-11-20T01:07:35.614Z,84.68
2022-11-20T01:10:03.380Z,85.12
2022-11-20T01:12:31.143Z,85.06
2022-11-20T01:14:58.780Z,84.21
2022-11-20T01:17:26.677Z,84.01
2022-11-20T01:19:55.709Z,83.80
2022-11-20T01:22:23.431Z,83.64
2022-11-20T01:25:31.670Z,83.31
2022-11-20T01:27:59.454Z,83.35
2022-11-20T01:30:27.346Z,83.30
2022-11-20T01:32:57.031Z,83.39
2022-11-20T01:35:26.184Z,82.24
2022-11-20T01:37:53.966Z,82.33
2022-11-20T01:40:21.925Z,82.90
2022-11-20T01:43:17.710Z,83.14
2022-11-20T01:46:01.353Z,83.38
2022-11-20T01:48:34.571Z,83.92
2022-11-20T01:51:06.186Z,83.26
2022-11-20T01:53:38.335Z,84.30
2022-11-20T01:56:11.017Z,84.10
2022-11-20T01:58:44.416Z,82.93
2022-11-20T02:01:13.689Z,82.80
2022-11-20T02:03:41.688Z,82.24
2022-11-20T02:06:17.347Z,82.32
2022-11-20T02:08:45.075Z,82.03
2022-11-20T02:11:13.762Z,82.73
2022-11-20T02:13:44.444Z,82.18
2022-11-20T02:16:19.199Z,82.11
2022-11-20T02:18:48.093Z,83.88
2022-11-20T02:21:26.454Z,83.48
2022-11-20T02:24:13.948Z,83.23
2022-11-20T02:26:51.756Z,83.72
2022-11-20T02:29:25.458Z,83.69
2022-11-20T02:31:55.768Z,83.85
2022-11-20T02:34:23.575Z,83.68
2022-11-20T02:36:54.238Z,84.08
2022-11-20T02:39:26.826Z,83.91
2022-11-20T02:41:55.654Z,83.14
2022-11-20T02:44:23.393Z,82.09
2022-11-20T02:46:51.135Z,82.55
2022-11-20T02:49:18.937Z,82.76
2022-11-20T02:51:46.889Z,82.58
2022-11-20T02:54:14.574Z,83.12
2022-11-20T02:56:44.414Z,83.72
2022-11-20T02:59:12.283Z,83.46
2022-11-20T03:01:40.070Z,83.56
2022-11-20T03:04:07.918Z,83.28
2022-11-20T03:06:35.871Z,84.16
2022-11-20T03:09:03.698Z,83.51
2022-11-20T03:11:31.483Z,83.32
2022-11-20T03:14:04.020Z,82.82
2022-11-20T03:16:33.671Z,83.52
2022-11-20T03:19:02.078Z,85.24
2022-11-20T03:21:29.867Z,86.54
2022-11-20T03:23:57.751Z,85.75
2022-11-20T03:26:27.211Z,84.56
2022-11-20T03:28:56.946Z,83.85
2022-11-20T03:31:27.912Z,83.94
2022-11-20T03:33:55.736Z,83.86
2022-11-20T03:36:23.569Z,83.72
2022-11-20T03:38:51.840Z,83.51
2022-11-20T03:41:21.078Z,83.13
2022-11-20T03:43:52.394Z,83.35
2022-11-20T03:46:20.359Z,82.77
2022-11-20T03:48:51.913Z,83.16
2022-11-20T03:51:21.484Z,82.97
2022-11-20T03:53:50.310Z,82.59
2022-11-20T03:56:20.308Z,81.91
2022-11-20T03:58:48.296Z,81.96
2022-11-20T04:01:18.366Z,82.12
2022-11-20T04:03:47.420Z,82.21
2022-11-20T04:06:18.600Z,82.00
2022-11-20T04:08:52.336Z,83.03
2022-11-20T04:11:23.254Z,82.96
2022-11-20T04:13:53.048Z,83.05
2022-11-20T04:16:21.739Z,82.04
2022-11-20T04:18:53.118Z,82.17
2022-11-20T04:21:22.412Z,82.11
2022-11-20T04:23:50.294Z,83.79
2022-11-20T04:26:18.342Z,84.69
2022-11-20T04:28:46.074Z,83.80
2022-11-20T04:31:16.505Z,84.53
2022-11-20T04:33:44.670Z,84.85
2022-11-20T04:36:14.481Z,83.90
2022-11-20T04:38:44.565Z,83.86
2022-11-20T04:41:17.133Z,83.12
2022-11-20T04:43:48.608Z,82.83
2022-11-20T04:46:16.538Z,83.14
2022-11-20T04:48:44.226Z,82.64
2022-11-20T04:51:12.512Z,82.98
2022-11-20T04:53:40.203Z,84.52
2022-11-20T04:56:11.556Z,82.68
2022-11-20T04:58:39.829Z,83.63
2022-11-20T05:01:09.211Z,84.74
2022-11-20T05:03:42.039Z,84.43
2022-11-20T05:06:12.018Z,84.18
2022-11-20T05:08:40.141Z,83.27
2022-11-20T05:11:10.779Z,83.16
2022-11-20T05:13:39.262Z,84.09
2022-11-20T05:16:09.615Z,83.98
2022-11-20T05:18:38.334Z,86.04
2022-11-20T05:21:06.823Z,85.59
2022-11-20T05:23:35.409Z,84.46
2022-11-20T05:26:03.691Z,84.29
2022-11-20T05:28:33.227Z,83.67
2022-11-20T05:31:06.992Z,83.96
2022-11-20T05:33:35.321Z,84.38
2022-11-20T05:36:04.066Z,86.12
2022-11-20T05:38:31.938Z,85.27
2022-11-20T05:41:05.751Z,83.57
2022-11-20T05:43:36.075Z,83.84
2022-11-20T05:46:04.548Z,85.15
2022-11-20T05:48:32.722Z,84.87
2022-11-20T05:51:01.630Z,84.71
2022-11-20T05:53:29.769Z,87.25
2022-11-20T05:56:01.373Z,85.96
2022-11-20T05:58:30.003Z,85.44
2022-11-20T06:01:05.714Z,85.43
2022-11-20T06:03:33.378Z,84.55
2022-11-20T06:06:01.168Z,84.61
2022-11-20T06:08:30.766Z,84.86
2022-11-20T06:10:59.795Z,85.43
2022-11-20T06:13:27.672Z,85.28
2022-11-20T06:15:55.462Z,84.55
2022-11-20T06:18:25.193Z,85.35
2022-11-20T06:21:01.757Z,88.30
2022-11-20T06:23:31.435Z,88.09
2022-11-20T06:26:03.384Z,87.61
2022-11-20T06:28:31.599Z,86.80
2022-11-20T06:30:59.627Z,86.67
2022-11-20T06:33:29.395Z,86.54
2022-11-20T06:36:01.630Z,87.08
2022-11-20T06:38:32.196Z,86.22
2022-11-20T06:40:59.993Z,86.16
2022-11-20T06:43:30.823Z,87.13
2022-11-20T06:46:00.394Z,87.61
2022-11-20T06:48:30.342Z,86.99
2022-11-20T06:50:58.962Z,86.74
2022-11-20T06:53:27.194Z,87.70
2022-11-20T06:55:58.619Z,88.21
2022-11-20T06:58:29.148Z,87.72
2022-11-20T07:01:00.377Z,86.75
2022-11-20T07:03:29.819Z,87.36
2022-11-20T07:05:58.265Z,88.04
2022-11-20T07:08:26.856Z,88.58
2022-11-20T07:10:54.876Z,87.80
2022-11-20T07:13:22.700Z,86.28
2022-11-20T07:15:50.520Z,88.15
2022-11-20T07:18:18.287Z,88.02
2022-11-20T07:20:47.494Z,87.95
2022-11-20T07:23:15.217Z,87.42
2022-11-20T07:25:42.943Z,86.22
2022-11-20T07:28:11.702Z,85.65
2022-11-20T07:30:39.919Z,85.28
2022-11-20T07:33:07.858Z,85.81
2022-11-20T07:35:37.543Z,85.87
2022-11-20T07:38:06.675Z,85.12
2022-11-20T07:40:34.443Z,85.14
2022-11-20T07:43:02.301Z,85.44
2022-11-20T07:45:30.227Z,84.95
2022-11-20T07:47:58.291Z,84.74
2022-11-20T07:50:26.210Z,85.56
2022-11-20T07:52:54.212Z,86.81
2022-11-20T07:55:23.350Z,85.23
2022-11-20T07:57:59.430Z,85.45
2022-11-20T08:00:28.475Z,86.42
2022-11-20T08:02:56.420Z,86.03
2022-11-20T08:05:24.377Z,85.96
2022-11-20T08:07:52.432Z,85.61
2022-11-20T08:10:20.463Z,84.94
2022-11-20T08:13:17.616Z,84.43
2022-11-20T08:15:51.340Z,84.14
2022-11-20T08:18:34.903Z,83.57
2022-11-20T08:21:04.577Z,84.20
2022-11-20T08:23:32.414Z,83.62
2022-11-20T08:26:00.188Z,83.15
2022-11-20T08:28:29.389Z,81.86
2022-11-20T08:31:01.119Z,81.12
2022-11-20T08:33:28.890Z,82.12
2022-11-20T08:36:02.126Z,83.05
2022-11-20T08:38:30.533Z,82.68
2022-11-20T08:41:17.004Z,81.94
2022-11-20T08:43:46.361Z,82.47
2022-11-20T08:46:14.642Z,81.75
2022-11-20T08:48:42.507Z,82.38
2022-11-20T08:51:10.524Z,82.10
2022-11-20T08:53:38.503Z,82.72
2022-11-20T08:56:07.074Z,82.06
2022-11-20T08:58:54.952Z,83.23
2022-11-20T09:01:25.340Z,82.52
2022-11-20T09:03:53.533Z,82.58
2022-11-20T09:06:21.296Z,82.70
2022-11-20T09:08:49.053Z,81.65
2022-11-20T09:11:16.848Z,82.53
2022-11-20T09:13:44.660Z,81.32
2022-11-20T09:16:12.636Z,82.03
2022-11-20T09:18:41.749Z,81.54
2022-11-20T09:21:12.866Z,82.48
2022-11-20T09:23:41.369Z,82.72
2022-11-20T09:26:12.407Z,83.66
2022-11-20T09:28:40.390Z,84.68
2022-11-20T09:31:09.185Z,83.79
2022-11-20T09:33:37.631Z,82.25
2022-11-20T09:36:07.285Z,82.85
2022-11-20T09:38:34.956Z,81.57
2022-11-20T09:41:08.927Z,81.87
2022-11-20T09:44:01.081Z,83.59
2022-11-20T09:46:35.632Z,81.51
2022-11-20T09:49:20.051Z,81.93
2022-11-20T09:51:59.033Z,82.68
2022-11-20T09:54:32.254Z,83.59
2022-11-20T09:57:02.785Z,84.67
2022-11-20T09:59:40.874Z,84.94
2022-11-20T10:02:30.658Z,84.61
2022-11-20T10:05:03.894Z,84.49
2022-11-20T10:07:41.205Z,82.42
2022-11-20T10:10:17.097Z,83.18
2022-11-20T10:12:59.937Z,83.12
2022-11-20T10:15:39.057Z,82.39
2022-11-20T10:18:19.937Z,83.39
2022-11-20T10:20:52.002Z,83.19
2022-11-20T10:23:40.072Z,83.16
2022-11-20T10:26:20.625Z,82.51
2022-11-20T10:29:04.721Z,83.12
2022-11-20T10:31:38.443Z,83.46
2022-11-20T10:34:19.374Z,82.48
2022-11-20T10:36:57.196Z,82.00
2022-11-20T10:39:35.140Z,81.20
2022-11-20T10:42:03.335Z,81.36
2022-11-20T10:44:52.527Z,82.80
2022-11-20T10:47:22.062Z,83.54
2022-11-20T10:49:54.059Z,83.09
2022-11-20T10:52:32.629Z,83.01
2022-11-20T10:55:12.842Z,81.34
2022-11-20T10:57:54.846Z,80.68
2022-11-20T11:00:23.050Z,82.28
2022-11-20T11:02:52.426Z,81.65
2022-11-20T11:05:33.950Z,80.15
2022-11-20T11:08:01.815Z,79.95
2022-11-20T11:10:38.320Z,78.84
2022-11-20T11:13:06.152Z,78.80
2022-11-20T11:15:40.866Z,82.28
2022-11-20T11:18:11.165Z,82.10
2022-11-20T11:20:39.296Z,83.93
2022-11-20T11:23:07.048Z,82.85
2022-11-20T11:25:37.527Z,81.94
2022-11-20T11:28:07.572Z,82.21
2022-11-20T11:30:44.635Z,82.07
2022-11-20T11:33:21.028Z,80.59
2022-11-20T11:35:51.723Z,80.92
2022-11-20T11:38:25.287Z,79.31
2022-11-20T11:40:56.121Z,78.51
2022-11-20T11:43:42.910Z,77.73
2022-11-20T11:46:27.225Z,76.85
2022-11-20T11:48:59.837Z,77.34
2022-11-20T11:51:34.760Z,76.16
2022-11-20T11:54:06.291Z,76.00
2022-11-20T11:56:35.485Z,78.11
2022-11-20T11:59:11.796Z,78.45
2022-11-20T12:01:46.560Z,77.15
2022-11-20T12:04:22.496Z,77.45
2022-11-20T12:06:55.899Z,76.77
2022-11-20T12:09:31.559Z,77.66
2022-11-20T12:12:08.158Z,77.27
2022-11-20T12:14:38.937Z,78.67
2022-11-20T12:17:07.134Z,77.94
2022-11-20T12:19:36.562Z,77.03
2022-11-20T12:22:15.400Z,79.85
2022-11-20T12:24:52.704Z,78.38
2022-11-20T12:27:46.176Z,78.36
2022-11-20T12:30:16.632Z,77.49
2022-11-20T12:33:14.332Z,78.26
2022-11-20T12:35:57.969Z,78.54
2022-11-20T12:38:43.641Z,78.36
2022-11-20T12:41:41.537Z,77.09
2022-11-20T12:44:49.736Z,76.40
2022-11-20T12:47:27.473Z,77.44
2022-11-20T12:50:04.556Z,77.48
2022-11-20T12:52:45.727Z,77.73
2022-11-20T12:55:22.851Z,77.70
2022-11-20T12:57:56.122Z,77.89
2022-11-20T13:00:27.053Z,77.54
2022-11-20T13:03:17.775Z,76.44
2022-11-20T13:05:55.953Z,76.60
2022-11-20T13:08:26.360Z,74.75
2022-11-20T13:11:02.072Z,75.13
2022-11-20T13:13:38.807Z,74.83
2022-11-20T13:16:14.698Z,75.03
2022-11-20T13:18:46.187Z,74.41
2022-11-20T13:21:22.344Z,73.28
2022-11-20T13:23:50.305Z,72.79
2022-11-20T13:26:21.423Z,74.31
2022-11-20T13:29:00.999Z,74.72
2022-11-20T13:31:36.173Z,74.63
2022-11-20T13:34:08.001Z,75.83
2022-11-20T13:36:37.617Z,75.59
2022-11-20T13:39:05.565Z,74.42
2022-11-20T13:41:36.445Z,73.96
2022-11-20T13:44:14.821Z,73.88
2022-11-20T13:46:45.954Z,74.06
2022-11-20T13:49:28.083Z,73.36
2022-11-20T13:52:07.975Z,73.27
2022-11-20T13:55:04.589Z,73.76
2022-11-20T13:57:51.002Z,73.16
2022-11-20T14:00:20.896Z,74.77
2022-11-20T14:03:02.338Z,73.74
2022-11-20T14:05:32.861Z,74.70
2022-11-20T14:08:00.926Z,75.17
2022-11-20T14:10:32.424Z,75.26
2022-11-20T14:13:00.764Z,75.13
2022-11-20T14:15:31.635Z,74.47
2022-11-20T14:18:02.127Z,75.70
2022-11-20T14:20:32.408Z,75.03
2022-11-20T14:23:00.367Z,73.97
2022-11-20T14:25:28.941Z,73.39
2022-11-20T14:27:59.415Z,72.47
2022-11-20T14:30:29.929Z,72.17
2022-11-20T14:33:03.345Z,74.06
2022-11-20T14:35:33.654Z,72.93
2022-11-20T14:38:03.025Z,74.88
2022-11-20T14:40:32.938Z,74.74
2022-11-20T14:43:01.716Z,74.90
2022-11-20T14:45:29.842Z,75.12
2022-11-20T14:48:01.668Z,75.43
2022-11-20T14:50:31.251Z,74.52
2022-11-20T14:53:01.037Z,75.09
2022-11-20T14:55:31.810Z,75.87
2022-11-20T14:58:01.808Z,76.85
2022-11-20T15:00:30.953Z,77.60
2022-11-20T15:03:00.475Z,76.35
2022-11-20T15:05:47.005Z,75.18
2022-11-20T15:08:15.407Z,76.64
2022-11-20T15:10:48.174Z,75.85
2022-11-20T15:13:18.352Z,76.44
2022-11-20T15:15:49.058Z,77.25
2022-11-20T15:18:20.545Z,78.14
2022-11-20T15:20:49.006Z,77.40
2022-11-20T15:23:19.496Z,77.30
2022-11-20T15:25:48.190Z,76.33
2022-11-20T15:28:20.026Z,75.92
2022-11-20T15:30:48.478Z,76.80
2022-11-20T15:33:18.687Z,78.54
2022-11-20T15:35:46.632Z,78.05
2022-11-20T15:38:14.398Z,77.24
2022-11-20T15:40:42.605Z,77.27
2022-11-20T15:43:13.673Z,77.98
2022-11-20T15:45:45.799Z,77.22
2022-11-20T15:48:16.489Z,79.40
2022-11-20T15:50:59.373Z,80.19
2022-11-20T15:53:27.142Z,82.25
2022-11-20T15:55:55.051Z,83.11
2022-11-20T15:58:23.959Z,82.26
2022-11-20T16:00:51.878Z,81.68
2022-11-20T16:03:20.679Z,80.47
2022-11-20T16:05:50.108Z,79.11
2022-11-20T16:08:17.888Z,78.16
2022-11-20T16:10:45.782Z,78.65
2022-11-20T16:13:35.329Z,78.11
2022-11-20T16:16:06.587Z,79.02
2022-11-20T16:18:35.353Z,78.35
2022-11-20T16:21:04.791Z,78.71
2022-11-20T16:23:33.020Z,77.73
2022-11-20T16:26:00.820Z,80.49
2022-11-20T16:28:28.545Z,83.06
2022-11-20T16:30:56.432Z,82.83
2022-11-20T16:33:24.292Z,80.40
2022-11-20T16:35:52.089Z,80.79
2022-11-20T16:38:21.410Z,82.44
2022-11-20T16:40:49.281Z,83.81
2022-11-20T16:43:17.163Z,82.83
2022-11-20T16:45:46.319Z,81.59
2022-11-20T16:48:15.916Z,83.15
2022-11-20T16:50:48.186Z,85.94
2022-11-20T16:53:16.215Z,83.71
2022-11-20T16:55:45.870Z,82.48
2022-11-20T16:58:14.036Z,83.69
2022-11-20T17:00:46.885Z,86.77
2022-11-20T17:03:18.222Z,86.51
2022-11-20T17:05:45.959Z,83.65
2022-11-20T17:08:13.684Z,82.72
2022-11-20T17:10:42.566Z,82.54
2022-11-20T17:13:11.750Z,82.10
2022-11-20T17:15:39.626Z,86.55
2022-11-20T17:18:07.444Z,86.25
2022-11-20T17:20:35.357Z,85.24
2022-11-20T17:23:03.075Z,83.97
2022-11-20T17:25:33.869Z,84.49
2022-11-20T17:28:01.558Z,83.45
2022-11-20T17:30:31.252Z,82.62
2022-11-20T17:32:58.986Z,83.42
2022-11-20T17:35:26.802Z,83.56
2022-11-20T17:37:54.470Z,83.85
2022-11-20T17:40:27.179Z,84.29
2022-11-20T17:42:55.756Z,83.74
2022-11-20T17:45:23.453Z,86.00
2022-11-20T17:47:52.541Z,85.06
2022-11-20T17:50:20.360Z,87.62
2022-11-20T17:52:48.088Z,88.02
2022-11-20T17:55:16.218Z,86.61
2022-11-20T17:58:02.759Z,85.51
2022-11-20T18:00:31.703Z,85.02
2022-11-20T18:03:00.831Z,85.26
2022-11-20T18:05:28.606Z,85.26
2022-11-20T18:07:56.375Z,85.97
2022-11-20T18:10:24.267Z,86.94
2022-11-20T18:12:53.807Z,87.26
2022-11-20T18:15:21.614Z,86.66
2022-11-20T18:17:49.354Z,88.06
2022-11-20T18:20:29.016Z,87.79
2022-11-20T18:22:57.538Z,88.44
2022-11-20T18:25:25.326Z,88.99
2022-11-20T18:27:53.453Z,86.72
2022-11-20T18:30:21.244Z,86.50
2022-11-20T18:32:50.082Z,86.94
2022-11-20T18:35:19.189Z,87.50
2022-11-20T18:37:46.891Z,87.02
2022-11-20T18:40:15.170Z,86.38
2022-11-20T18:42:56.818Z,86.14
2022-11-20T18:45:24.631Z,86.55
2022-11-20T18:47:52.339Z,86.69
2022-11-20T18:50:21.500Z,89.11
2022-11-20T18:52:49.343Z,90.98
2022-11-20T18:55:17.079Z,89.27
2022-11-20T18:57:46.977Z,88.01
2022-11-20T19:00:15.810Z,87.51
2022-11-20T19:02:43.746Z,86.64
2022-11-20T19:05:11.949Z,88.33
2022-11-20T19:07:41.408Z,86.42
2022-11-20T19:10:09.899Z,86.89
2022-11-20T19:12:37.971Z,86.13
2022-11-20T19:15:07.076Z,84.94
2022-11-20T19:17:34.935Z,84.64
2022-11-20T19:20:02.898Z,85.35
2022-11-20T19:22:30.675Z,83.89
2022-11-20T19:25:00.029Z,85.10
2022-11-20T19:27:27.710Z,84.63
2022-11-20T19:29:58.788Z,84.46
2022-11-20T19:32:26.536Z,85.31
2022-11-20T19:34:54.243Z,84.53
2022-11-20T19:37:22.295Z,82.86
2022-11-20T19:39:50.015Z,84.14
2022-11-20T19:42:19.143Z,83.71
2022-11-20T19:44:46.934Z,84.43
2022-11-20T19:47:15.049Z,83.75
2022-11-20T19:49:42.880Z,85.52
2022-11-20T19:52:10.730Z,89.79
2022-11-20T19:54:38.644Z,87.92
2022-11-20T19:57:06.618Z,87.08
2022-11-20T19:59:35.733Z,86.25
2022-11-20T20:02:03.917Z,85.82
2022-11-20T20:04:31.737Z,85.77
2022-11-20T20:06:59.569Z,86.34
2022-11-20T20:09:27.669Z,87.39
2022-11-20T20:11:55.454Z,86.25
2022-11-20T20:14:23.312Z,86.04
2022-11-20T20:16:52.498Z,85.33
2022-11-20T20:19:20.239Z,84.65
2022-11-20T20:21:49.691Z,84.47
2022-11-20T20:24:17.812Z,84.91
2022-11-20T20:26:45.695Z,85.07
2022-11-20T20:29:13.566Z,84.21
2022-11-20T20:31:41.568Z,84.38
2022-11-20T20:34:10.689Z,83.91
2022-11-20T20:36:38.459Z,86.22
2022-11-20T20:39:06.371Z,86.65
2022-11-20T20:41:34.088Z,87.56
2022-11-20T20:44:19.863Z,86.39
2022-11-20T20:46:47.722Z,87.40
2022-11-20T20:49:16.832Z,85.40
2022-11-20T20:51:44.638Z,84.22
2022-11-20T20:54:12.428Z,84.38
2022-11-20T20:56:40.173Z,82.90
2022-11-20T20:59:07.818Z,86.11
2022-11-20T21:01:35.700Z,88.28
2022-11-20T21:04:03.479Z,88.80
2022-11-20T21:06:32.864Z,89.27
2022-11-20T21:09:00.649Z,90.04
2022-11-20T21:11:28.483Z,90.01
2022-11-20T21:13:56.287Z,90.98
2022-11-20T21:16:25.045Z,90.78
2022-11-20T21:18:52.827Z,90.19
2022-11-20T21:21:37.905Z,88.65
2022-11-20T21:24:08.796Z,88.16
2022-11-20T21:26:36.462Z,88.91
2022-11-20T21:29:04.201Z,88.17
2022-11-20T21:31:31.957Z,87.61
2022-11-20T21:33:59.817Z,87.72
2022-11-20T21:36:29.573Z,86.16
2022-11-20T21:38:58.757Z,85.68
2022-11-20T21:41:30.163Z,87.42
2022-11-20T21:44:29.520Z,84.90
2022-11-20T21:46:47.430Z,85.42
2022-11-20T21:49:17.542Z,87.58
2022-11-20T21:51:45.328Z,88.24
2022-11-20T21:54:13.282Z,89.08
2022-11-20T21:56:42.286Z,88.52
2022-11-20T21:59:13.253Z,87.99
2022-11-20T22:01:41.587Z,86.95
2022-11-20T22:04:14.871Z,86.28
2022-11-20T22:06:43.025Z,86.33
2022-11-20T22:09:11.630Z,86.74
2022-11-20T22:11:39.337Z,86.04
2022-11-20T22:14:22.810Z,86.28
2022-11-20T22:16:52.951Z,87.24
2022-11-20T22:19:22.126Z,88.02
2022-11-20T22:21:50.621Z,88.77
2022-11-20T22:24:19.930Z,88.94
2022-11-20T22:26:48.212Z,88.75
2022-11-20T22:29:19.044Z,87.17
2022-11-20T22:31:46.857Z,86.16
2022-11-20T22:34:15.595Z,84.26
2022-11-20T22:36:43.516Z,84.75
2022-11-20T22:39:11.539Z,87.18
2022-11-20T22:41:39.238Z,86.80
2022-11-20T22:44:08.737Z,86.35
2022-11-20T22:46:38.436Z,85.19
2022-11-20T22:49:08.502Z,85.59
2022-11-20T22:51:37.869Z,86.49
2022-11-20T22:54:06.715Z,85.77
2022-11-20T22:56:35.303Z,84.94
2022-11-20T22:59:03.066Z,84.32
2022-11-20T23:01:32.736Z,83.14
2022-11-20T23:04:03.457Z,83.73
2022-11-20T23:06:34.255Z,83.36
2022-11-20T23:09:02.453Z,84.17
2022-11-20T23:11:32.025Z,84.48
2022-11-20T23:14:01.524Z,84.84
2022-11-20T23:16:30.654Z,85.79
2022-11-20T23:19:01.599Z,87.51
2022-11-20T23:21:29.803Z,88.07
2022-11-20T23:23:59.297Z,88.36
2022-11-20T23:26:29.292Z,87.93
2022-11-20T23:29:00.009Z,87.83
2022-11-20T23:31:30.292Z,87.83
2022-11-20T23:33:58.240Z,87.70
2022-11-20T23:36:27.518Z,87.51
2022-11-20T23:38:55.197Z,88.52
2022-11-20T23:41:22.946Z,87.51
2022-11-20T23:43:50.662Z,87.58
2022-11-20T23:46:18.418Z,86.43
2022-11-20T23:48:46.506Z,85.00
2022-11-20T23:51:14.812Z,83.45
2022-11-20T23:53:44.036Z,82.82
2022-11-20T23:56:14.452Z,82.48
2022-11-20T23:58:43.057Z,81.49
